sensor_id;sensor_type;location;lat;lon;timestamp;temperature;humidity
56538;DHT22;42435;53.292;6.000;2023-09-30T00:01:21;14.10;81.00
56538;DHT22;42435;53.292;6.000;2023-09-30T00:03:47;14.10;81.00
56538;DHT22;42435;53.292;6.000;2023-09-30T00:06:13;14.10;80.90
56538;DHT22;42435;53.292;6.000;2023-09-30T00:08:38;14.10;80.90
56538;DHT22;42435;53.292;6.000;2023-09-30T00:11:05;14.10;81.00
56538;DHT22;42435;53.292;6.000;2023-09-30T00:13:31;14.10;81.00
56538;DHT22;42435;53.292;6.000;2023-09-30T00:15:57;14.00;81.00
56538;DHT22;42435;53.292;6.000;2023-09-30T00:18:23;14.00;81.00
56538;DHT22;42435;53.292;6.000;2023-09-30T00:20:48;14.00;81.00
56538;DHT22;42435;53.292;6.000;2023-09-30T00:23:14;13.90;81.00
56538;DHT22;42435;53.292;6.000;2023-09-30T00:25:40;13.90;81.10
56538;DHT22;42435;53.292;6.000;2023-09-30T00:28:05;13.90;81.10
56538;DHT22;42435;53.292;6.000;2023-09-30T00:30:31;13.90;81.20
56538;DHT22;42435;53.292;6.000;2023-09-30T00:32:57;13.90;81.20
56538;DHT22;42435;53.292;6.000;2023-09-30T00:35:22;13.80;81.20
56538;DHT22;42435;53.292;6.000;2023-09-30T00:37:48;13.70;81.20
56538;DHT22;42435;53.292;6.000;2023-09-30T00:40:13;13.80;81.30
56538;DHT22;42435;53.292;6.000;2023-09-30T00:42:39;13.80;81.40
56538;DHT22;42435;53.292;6.000;2023-09-30T00:45:06;13.70;81.40
56538;DHT22;42435;53.292;6.000;2023-09-30T00:47:35;13.70;81.50
56538;DHT22;42435;53.292;6.000;2023-09-30T00:50:01;13.70;81.50
56538;DHT22;42435;53.292;6.000;2023-09-30T00:52:30;13.60;81.50
56538;DHT22;42435;53.292;6.000;2023-09-30T00:54:59;13.60;81.50
56538;DHT22;42435;53.292;6.000;2023-09-30T00:57:25;13.60;81.50
56538;DHT22;42435;53.292;6.000;2023-09-30T00:59:51;13.60;81.60
56538;DHT22;42435;53.292;6.000;2023-09-30T01:02:21;13.50;81.60
56538;DHT22;42435;53.292;6.000;2023-09-30T01:04:48;13.50;81.70
56538;DHT22;42435;53.292;6.000;2023-09-30T01:07:14;13.50;81.70
56538;DHT22;42435;53.292;6.000;2023-09-30T01:09:40;13.50;81.70
56538;DHT22;42435;53.292;6.000;2023-09-30T01:12:06;13.50;81.80
56538;DHT22;42435;53.292;6.000;2023-09-30T01:14:33;13.50;81.70
56538;DHT22;42435;53.292;6.000;2023-09-30T01:17:08;13.50;81.80
56538;DHT22;42435;53.292;6.000;2023-09-30T01:19:40;13.50;81.80
56538;DHT22;42435;53.292;6.000;2023-09-30T01:22:08;13.50;81.80
56538;DHT22;42435;53.292;6.000;2023-09-30T01:24:39;13.50;81.90
56538;DHT22;42435;53.292;6.000;2023-09-30T01:27:06;13.50;81.90
56538;DHT22;42435;53.292;6.000;2023-09-30T01:29:31;13.50;81.90
56538;DHT22;42435;53.292;6.000;2023-09-30T01:31:57;13.60;81.90
56538;DHT22;42435;53.292;6.000;2023-09-30T01:34:23;13.50;81.80
56538;DHT22;42435;53.292;6.000;2023-09-30T01:36:49;13.50;81.80
56538;DHT22;42435;53.292;6.000;2023-09-30T01:39:14;13.50;81.80
56538;DHT22;42435;53.292;6.000;2023-09-30T01:41:40;13.50;81.80
56538;DHT22;42435;53.292;6.000;2023-09-30T01:44:07;13.50;81.80
56538;DHT22;42435;53.292;6.000;2023-09-30T01:46:33;13.50;81.90
56538;DHT22;42435;53.292;6.000;2023-09-30T01:48:58;13.60;81.80
56538;DHT22;42435;53.292;6.000;2023-09-30T01:51:24;13.60;81.90
56538;DHT22;42435;53.292;6.000;2023-09-30T01:53:50;13.60;81.90
56538;DHT22;42435;53.292;6.000;2023-09-30T01:56:16;13.60;82.00
56538;DHT22;42435;53.292;6.000;2023-09-30T01:58:41;13.60;82.00
56538;DHT22;42435;53.292;6.000;2023-09-30T02:01:07;13.70;82.00
56538;DHT22;42435;53.292;6.000;2023-09-30T02:03:33;13.70;81.90
56538;DHT22;42435;53.292;6.000;2023-09-30T02:05:59;13.70;81.80
56538;DHT22;42435;53.292;6.000;2023-09-30T02:08:24;13.70;81.80
56538;DHT22;42435;53.292;6.000;2023-09-30T02:10:50;13.70;81.80
56538;DHT22;42435;53.292;6.000;2023-09-30T02:13:17;13.80;81.80
56538;DHT22;42435;53.292;6.000;2023-09-30T02:15:43;13.70;81.80
56538;DHT22;42435;53.292;6.000;2023-09-30T02:18:09;13.70;81.80
56538;DHT22;42435;53.292;6.000;2023-09-30T02:20:39;13.70;81.70
56538;DHT22;42435;53.292;6.000;2023-09-30T02:23:09;13.70;81.80
56538;DHT22;42435;53.292;6.000;2023-09-30T02:25:37;13.70;81.90
56538;DHT22;42435;53.292;6.000;2023-09-30T02:28:02;13.80;81.90
56538;DHT22;42435;53.292;6.000;2023-09-30T02:30:28;13.80;81.90
56538;DHT22;42435;53.292;6.000;2023-09-30T02:32:54;13.80;81.90
56538;DHT22;42435;53.292;6.000;2023-09-30T02:35:23;13.80;81.90
56538;DHT22;42435;53.292;6.000;2023-09-30T02:37:49;13.80;82.00
56538;DHT22;42435;53.292;6.000;2023-09-30T02:40:18;13.80;82.00
56538;DHT22;42435;53.292;6.000;2023-09-30T02:42:44;13.80;82.00
56538;DHT22;42435;53.292;6.000;2023-09-30T02:45:11;13.80;82.10
56538;DHT22;42435;53.292;6.000;2023-09-30T02:47:39;13.80;82.10
56538;DHT22;42435;53.292;6.000;2023-09-30T02:50:06;13.80;82.10
56538;DHT22;42435;53.292;6.000;2023-09-30T02:52:34;13.80;82.10
56538;DHT22;42435;53.292;6.000;2023-09-30T02:55:00;13.80;82.20
56538;DHT22;42435;53.292;6.000;2023-09-30T02:57:26;13.80;82.10
56538;DHT22;42435;53.292;6.000;2023-09-30T02:59:53;13.80;82.10
56538;DHT22;42435;53.292;6.000;2023-09-30T03:02:20;13.80;82.10
56538;DHT22;42435;53.292;6.000;2023-09-30T03:04:47;13.90;82.30
56538;DHT22;42435;53.292;6.000;2023-09-30T03:07:17;13.80;82.30
56538;DHT22;42435;53.292;6.000;2023-09-30T03:09:43;13.80;82.30
56538;DHT22;42435;53.292;6.000;2023-09-30T03:12:09;13.80;82.30
56538;DHT22;42435;53.292;6.000;2023-09-30T03:14:35;13.80;82.30
56538;DHT22;42435;53.292;6.000;2023-09-30T03:17:00;13.80;82.40
56538;DHT22;42435;53.292;6.000;2023-09-30T03:19:29;13.80;82.40
56538;DHT22;42435;53.292;6.000;2023-09-30T03:21:55;13.80;82.30
56538;DHT22;42435;53.292;6.000;2023-09-30T03:24:21;13.80;82.30
56538;DHT22;42435;53.292;6.000;2023-09-30T03:26:48;13.80;82.40
56538;DHT22;42435;53.292;6.000;2023-09-30T03:29:15;13.80;82.40
56538;DHT22;42435;53.292;6.000;2023-09-30T03:31:40;13.80;82.50
56538;DHT22;42435;53.292;6.000;2023-09-30T03:34:06;13.80;82.60
56538;DHT22;42435;53.292;6.000;2023-09-30T03:36:32;13.80;82.70
56538;DHT22;42435;53.292;6.000;2023-09-30T03:38:58;13.80;82.60
56538;DHT22;42435;53.292;6.000;2023-09-30T03:41:32;13.80;82.60
56538;DHT22;42435;53.292;6.000;2023-09-30T03:43:59;13.90;82.50
56538;DHT22;42435;53.292;6.000;2023-09-30T03:46:26;13.80;82.40
56538;DHT22;42435;53.292;6.000;2023-09-30T03:48:51;13.90;82.40
56538;DHT22;42435;53.292;6.000;2023-09-30T03:51:17;13.80;82.30
56538;DHT22;42435;53.292;6.000;2023-09-30T03:53:44;13.80;82.20
56538;DHT22;42435;53.292;6.000;2023-09-30T03:56:10;13.80;82.10
56538;DHT22;42435;53.292;6.000;2023-09-30T03:58:40;13.70;82.20
56538;DHT22;42435;53.292;6.000;2023-09-30T04:01:07;13.70;82.30
56538;DHT22;42435;53.292;6.000;2023-09-30T04:03:53;13.70;82.30
56538;DHT22;42435;53.292;6.000;2023-09-30T04:06:21;13.70;82.40
56538;DHT22;42435;53.292;6.000;2023-09-30T04:08:47;13.70;82.30
56538;DHT22;42435;53.292;6.000;2023-09-30T04:11:13;13.70;82.40
56538;DHT22;42435;53.292;6.000;2023-09-30T04:13:46;13.70;82.40
56538;DHT22;42435;53.292;6.000;2023-09-30T04:16:12;13.70;82.40
56538;DHT22;42435;53.292;6.000;2023-09-30T04:18:38;13.60;82.40
56538;DHT22;42435;53.292;6.000;2023-09-30T04:21:06;13.60;82.30
56538;DHT22;42435;53.292;6.000;2023-09-30T04:23:33;13.60;82.30
56538;DHT22;42435;53.292;6.000;2023-09-30T04:25:59;13.60;82.30
56538;DHT22;42435;53.292;6.000;2023-09-30T04:28:24;13.60;82.30
56538;DHT22;42435;53.292;6.000;2023-09-30T04:30:50;13.60;82.40
56538;DHT22;42435;53.292;6.000;2023-09-30T04:33:16;13.60;82.50
56538;DHT22;42435;53.292;6.000;2023-09-30T04:35:50;13.60;82.60
56538;DHT22;42435;53.292;6.000;2023-09-30T04:38:15;13.60;82.70
56538;DHT22;42435;53.292;6.000;2023-09-30T04:40:41;13.60;82.80
56538;DHT22;42435;53.292;6.000;2023-09-30T04:43:09;13.60;82.80
56538;DHT22;42435;53.292;6.000;2023-09-30T04:45:34;13.60;82.90
56538;DHT22;42435;53.292;6.000;2023-09-30T04:48:00;13.60;82.90
56538;DHT22;42435;53.292;6.000;2023-09-30T04:50:27;13.50;82.90
56538;DHT22;42435;53.292;6.000;2023-09-30T04:52:54;13.50;83.00
56538;DHT22;42435;53.292;6.000;2023-09-30T04:55:21;13.50;82.90
56538;DHT22;42435;53.292;6.000;2023-09-30T04:57:47;13.50;82.90
56538;DHT22;42435;53.292;6.000;2023-09-30T05:00:17;13.50;82.80
56538;DHT22;42435;53.292;6.000;2023-09-30T05:02:46;13.50;82.80
56538;DHT22;42435;53.292;6.000;2023-09-30T05:05:12;13.50;82.90
56538;DHT22;42435;53.292;6.000;2023-09-30T05:07:37;13.50;82.80
56538;DHT22;42435;53.292;6.000;2023-09-30T05:10:03;13.50;82.80
56538;DHT22;42435;53.292;6.000;2023-09-30T05:12:36;13.50;82.80
56538;DHT22;42435;53.292;6.000;2023-09-30T05:15:02;13.40;82.70
56538;DHT22;42435;53.292;6.000;2023-09-30T05:17:28;13.40;82.70
56538;DHT22;42435;53.292;6.000;2023-09-30T05:19:56;13.40;82.70
56538;DHT22;42435;53.292;6.000;2023-09-30T05:22:22;13.40;82.70
56538;DHT22;42435;53.292;6.000;2023-09-30T05:24:51;13.40;82.60
56538;DHT22;42435;53.292;6.000;2023-09-30T05:27:17;13.30;82.50
56538;DHT22;42435;53.292;6.000;2023-09-30T05:29:43;13.30;82.40
56538;DHT22;42435;53.292;6.000;2023-09-30T05:32:09;13.30;82.40
56538;DHT22;42435;53.292;6.000;2023-09-30T05:34:34;13.20;82.50
56538;DHT22;42435;53.292;6.000;2023-09-30T05:37:00;13.20;82.40
56538;DHT22;42435;53.292;6.000;2023-09-30T05:39:29;13.20;82.40
56538;DHT22;42435;53.292;6.000;2023-09-30T05:41:55;13.20;82.40
56538;DHT22;42435;53.292;6.000;2023-09-30T05:44:21;13.10;82.40
56538;DHT22;42435;53.292;6.000;2023-09-30T05:46:47;13.10;82.40
56538;DHT22;42435;53.292;6.000;2023-09-30T05:49:13;13.00;82.50
56538;DHT22;42435;53.292;6.000;2023-09-30T05:51:42;13.00;82.50
56538;DHT22;42435;53.292;6.000;2023-09-30T05:54:08;13.00;82.60
56538;DHT22;42435;53.292;6.000;2023-09-30T05:56:37;13.00;82.70
56538;DHT22;42435;53.292;6.000;2023-09-30T05:59:04;13.00;82.70
56538;DHT22;42435;53.292;6.000;2023-09-30T06:01:31;12.90;82.90
56538;DHT22;42435;53.292;6.000;2023-09-30T06:03:58;12.90;83.00
56538;DHT22;42435;53.292;6.000;2023-09-30T06:06:24;12.90;83.00
56538;DHT22;42435;53.292;6.000;2023-09-30T06:08:51;12.90;83.10
56538;DHT22;42435;53.292;6.000;2023-09-30T06:11:23;12.90;83.10
56538;DHT22;42435;53.292;6.000;2023-09-30T06:13:57;12.90;83.20
56538;DHT22;42435;53.292;6.000;2023-09-30T06:16:29;13.00;83.20
56538;DHT22;42435;53.292;6.000;2023-09-30T06:18:57;13.00;83.20
56538;DHT22;42435;53.292;6.000;2023-09-30T06:21:24;13.00;83.30
56538;DHT22;42435;53.292;6.000;2023-09-30T06:23:51;13.00;83.30
56538;DHT22;42435;53.292;6.000;2023-09-30T06:26:20;13.10;83.30
56538;DHT22;42435;53.292;6.000;2023-09-30T06:28:46;13.10;83.30
56538;DHT22;42435;53.292;6.000;2023-09-30T06:31:16;13.10;83.30
56538;DHT22;42435;53.292;6.000;2023-09-30T06:33:43;13.10;83.20
56538;DHT22;42435;53.292;6.000;2023-09-30T06:36:12;13.20;83.20
56538;DHT22;42435;53.292;6.000;2023-09-30T06:38:40;13.20;83.20
56538;DHT22;42435;53.292;6.000;2023-09-30T06:41:07;13.30;83.20
56538;DHT22;42435;53.292;6.000;2023-09-30T06:43:35;13.40;83.10
56538;DHT22;42435;53.292;6.000;2023-09-30T06:46:08;13.40;83.00
56538;DHT22;42435;53.292;6.000;2023-09-30T06:48:35;13.40;82.90
56538;DHT22;42435;53.292;6.000;2023-09-30T06:51:02;13.50;82.90
56538;DHT22;42435;53.292;6.000;2023-09-30T06:53:28;13.60;82.80
56538;DHT22;42435;53.292;6.000;2023-09-30T06:55:54;13.60;82.70
56538;DHT22;42435;53.292;6.000;2023-09-30T06:58:20;13.70;82.60
56538;DHT22;42435;53.292;6.000;2023-09-30T07:00:50;13.70;82.50
56538;DHT22;42435;53.292;6.000;2023-09-30T07:03:16;13.80;82.50
56538;DHT22;42435;53.292;6.000;2023-09-30T07:05:42;13.90;82.40
56538;DHT22;42435;53.292;6.000;2023-09-30T07:08:11;13.90;82.30
56538;DHT22;42435;53.292;6.000;2023-09-30T07:10:37;14.00;82.10
56538;DHT22;42435;53.292;6.000;2023-09-30T07:13:03;14.00;82.10
56538;DHT22;42435;53.292;6.000;2023-09-30T07:15:29;14.10;82.00
56538;DHT22;42435;53.292;6.000;2023-09-30T07:17:55;14.10;81.80
56538;DHT22;42435;53.292;6.000;2023-09-30T07:20:21;14.10;81.80
56538;DHT22;42435;53.292;6.000;2023-09-30T07:22:48;14.10;81.70
56538;DHT22;42435;53.292;6.000;2023-09-30T07:25:13;14.10;81.80
56538;DHT22;42435;53.292;6.000;2023-09-30T07:27:44;14.20;81.80
56538;DHT22;42435;53.292;6.000;2023-09-30T07:30:14;14.20;81.90
56538;DHT22;42435;53.292;6.000;2023-09-30T07:32:43;14.40;81.90
56538;DHT22;42435;53.292;6.000;2023-09-30T07:35:10;14.40;81.90
56538;DHT22;42435;53.292;6.000;2023-09-30T07:37:35;14.40;82.00
56538;DHT22;42435;53.292;6.000;2023-09-30T07:40:01;14.50;82.00
56538;DHT22;42435;53.292;6.000;2023-09-30T07:42:28;14.60;82.10
56538;DHT22;42435;53.292;6.000;2023-09-30T07:44:53;14.70;82.20
56538;DHT22;42435;53.292;6.000;2023-09-30T07:47:19;14.90;82.30
56538;DHT22;42435;53.292;6.000;2023-09-30T07:49:45;15.00;82.30
56538;DHT22;42435;53.292;6.000;2023-09-30T07:52:12;15.20;82.20
56538;DHT22;42435;53.292;6.000;2023-09-30T07:54:38;15.40;81.90
56538;DHT22;42435;53.292;6.000;2023-09-30T07:57:04;15.50;81.70
56538;DHT22;42435;53.292;6.000;2023-09-30T07:59:30;15.70;81.40
56538;DHT22;42435;53.292;6.000;2023-09-30T08:01:55;15.90;81.10
56538;DHT22;42435;53.292;6.000;2023-09-30T08:04:22;16.10;80.90
56538;DHT22;42435;53.292;6.000;2023-09-30T08:06:49;16.30;80.60
56538;DHT22;42435;53.292;6.000;2023-09-30T08:09:14;16.50;80.40
56538;DHT22;42435;53.292;6.000;2023-09-30T08:11:40;16.70;79.90
56538;DHT22;42435;53.292;6.000;2023-09-30T08:14:06;16.90;79.40
56538;DHT22;42435;53.292;6.000;2023-09-30T08:16:35;17.10;79.10
56538;DHT22;42435;53.292;6.000;2023-09-30T08:19:02;17.20;78.80
56538;DHT22;42435;53.292;6.000;2023-09-30T08:21:29;17.40;78.40
56538;DHT22;42435;53.292;6.000;2023-09-30T08:23:54;17.60;78.00
56538;DHT22;42435;53.292;6.000;2023-09-30T08:26:20;17.70;77.40
56538;DHT22;42435;53.292;6.000;2023-09-30T08:28:46;17.90;77.00
56538;DHT22;42435;53.292;6.000;2023-09-30T08:31:11;18.10;76.70
56538;DHT22;42435;53.292;6.000;2023-09-30T08:33:37;18.30;76.20
56538;DHT22;42435;53.292;6.000;2023-09-30T08:36:06;18.40;75.80
56538;DHT22;42435;53.292;6.000;2023-09-30T08:38:35;18.60;75.20
56538;DHT22;42435;53.292;6.000;2023-09-30T08:41:01;18.70;74.60
56538;DHT22;42435;53.292;6.000;2023-09-30T08:43:28;18.90;73.90
56538;DHT22;42435;53.292;6.000;2023-09-30T08:45:56;18.90;73.80
56538;DHT22;42435;53.292;6.000;2023-09-30T08:48:33;19.00;73.20
56538;DHT22;42435;53.292;6.000;2023-09-30T08:51:00;19.10;72.80
56538;DHT22;42435;53.292;6.000;2023-09-30T08:53:28;19.30;72.50
56538;DHT22;42435;53.292;6.000;2023-09-30T08:55:55;19.40;71.90
56538;DHT22;42435;53.292;6.000;2023-09-30T08:58:27;19.60;71.80
56538;DHT22;42435;53.292;6.000;2023-09-30T09:00:53;19.70;71.20
56538;DHT22;42435;53.292;6.000;2023-09-30T09:03:19;19.90;70.60
56538;DHT22;42435;53.292;6.000;2023-09-30T09:05:46;20.00;70.20
56538;DHT22;42435;53.292;6.000;2023-09-30T09:08:12;20.10;69.90
56538;DHT22;42435;53.292;6.000;2023-09-30T09:10:55;20.20;69.40
56538;DHT22;42435;53.292;6.000;2023-09-30T09:13:53;20.30;68.70
56538;DHT22;42435;53.292;6.000;2023-09-30T09:16:24;20.40;68.30
56538;DHT22;42435;53.292;6.000;2023-09-30T09:18:54;20.50;68.20
56538;DHT22;42435;53.292;6.000;2023-09-30T09:21:21;20.60;67.80
56538;DHT22;42435;53.292;6.000;2023-09-30T09:23:50;20.70;67.10
56538;DHT22;42435;53.292;6.000;2023-09-30T09:26:30;20.70;66.70
56538;DHT22;42435;53.292;6.000;2023-09-30T09:28:58;20.70;65.90
56538;DHT22;42435;53.292;6.000;2023-09-30T09:31:26;20.80;65.80
56538;DHT22;42435;53.292;6.000;2023-09-30T09:33:54;20.80;65.70
56538;DHT22;42435;53.292;6.000;2023-09-30T09:36:21;20.80;65.70
56538;DHT22;42435;53.292;6.000;2023-09-30T09:38:48;20.90;65.50
56538;DHT22;42435;53.292;6.000;2023-09-30T09:41:15;21.10;65.20
56538;DHT22;42435;53.292;6.000;2023-09-30T09:43:47;21.20;63.70
56538;DHT22;42435;53.292;6.000;2023-09-30T09:46:13;21.20;63.00
56538;DHT22;42435;53.292;6.000;2023-09-30T09:48:39;21.20;62.10
56538;DHT22;42435;53.292;6.000;2023-09-30T09:51:05;21.30;61.80
56538;DHT22;42435;53.292;6.000;2023-09-30T09:53:35;21.20;61.80
56538;DHT22;42435;53.292;6.000;2023-09-30T09:56:04;21.30;61.20
56538;DHT22;42435;53.292;6.000;2023-09-30T09:58:36;21.40;61.00
56538;DHT22;42435;53.292;6.000;2023-09-30T10:01:07;21.40;60.40
56538;DHT22;42435;53.292;6.000;2023-09-30T10:03:35;21.40;60.20
56538;DHT22;42435;53.292;6.000;2023-09-30T10:06:02;21.50;59.80
56538;DHT22;42435;53.292;6.000;2023-09-30T10:08:37;21.40;59.90
56538;DHT22;42435;53.292;6.000;2023-09-30T10:11:05;21.50;59.90
56538;DHT22;42435;53.292;6.000;2023-09-30T10:19:16;21.80;58.90
56538;DHT22;42435;53.292;6.000;2023-09-30T10:24:59;21.90;58.70
56538;DHT22;42435;53.292;6.000;2023-09-30T10:35:16;21.90;58.80
56538;DHT22;42435;53.292;6.000;2023-09-30T10:37:43;21.90;58.80
56538;DHT22;42435;53.292;6.000;2023-09-30T10:40:09;21.90;58.90
56538;DHT22;42435;53.292;6.000;2023-09-30T10:42:45;21.90;58.40
56538;DHT22;42435;53.292;6.000;2023-09-30T10:48:32;22.00;57.90
56538;DHT22;42435;53.292;6.000;2023-09-30T10:50:59;22.00;57.60
56538;DHT22;42435;53.292;6.000;2023-09-30T10:53:26;22.00;57.50
56538;DHT22;42435;53.292;6.000;2023-09-30T10:55:59;22.10;57.40
56538;DHT22;42435;53.292;6.000;2023-09-30T10:58:48;22.20;56.90
56538;DHT22;42435;53.292;6.000;2023-09-30T11:01:20;22.30;56.60
56538;DHT22;42435;53.292;6.000;2023-09-30T11:03:46;22.40;56.20
56538;DHT22;42435;53.292;6.000;2023-09-30T11:06:19;22.50;55.60
56538;DHT22;42435;53.292;6.000;2023-09-30T11:08:59;22.60;54.40
56538;DHT22;42435;53.292;6.000;2023-09-30T11:11:40;22.70;54.00
56538;DHT22;42435;53.292;6.000;2023-09-30T11:14:23;22.70;54.00
56538;DHT22;42435;53.292;6.000;2023-09-30T11:16:56;22.90;54.30
56538;DHT22;42435;53.292;6.000;2023-09-30T11:19:22;22.90;54.40
56538;DHT22;42435;53.292;6.000;2023-09-30T11:21:52;23.00;54.30
56538;DHT22;42435;53.292;6.000;2023-09-30T11:24:18;23.20;53.70
56538;DHT22;42435;53.292;6.000;2023-09-30T11:26:45;23.30;53.20
56538;DHT22;42435;53.292;6.000;2023-09-30T11:29:15;23.40;53.10
56538;DHT22;42435;53.292;6.000;2023-09-30T11:31:46;23.50;52.70
56538;DHT22;42435;53.292;6.000;2023-09-30T11:34:13;23.70;52.50
56538;DHT22;42435;53.292;6.000;2023-09-30T11:36:41;23.80;52.10
56538;DHT22;42435;53.292;6.000;2023-09-30T11:39:24;23.90;51.70
56538;DHT22;42435;53.292;6.000;2023-09-30T11:41:50;23.90;50.80
56538;DHT22;42435;53.292;6.000;2023-09-30T11:44:16;23.90;50.40
56538;DHT22;42435;53.292;6.000;2023-09-30T11:46:53;23.90;50.20
56538;DHT22;42435;53.292;6.000;2023-09-30T11:49:33;23.90;50.20
56538;DHT22;42435;53.292;6.000;2023-09-30T11:52:06;23.70;50.30
56538;DHT22;42435;53.292;6.000;2023-09-30T11:57:01;23.60;50.60
56538;DHT22;42435;53.292;6.000;2023-09-30T11:59:30;23.60;50.50
56538;DHT22;42435;53.292;6.000;2023-09-30T12:01:57;23.60;50.30
56538;DHT22;42435;53.292;6.000;2023-09-30T12:04:26;23.60;50.10
56538;DHT22;42435;53.292;6.000;2023-09-30T12:06:52;23.60;50.50
56538;DHT22;42435;53.292;6.000;2023-09-30T12:09:18;23.60;50.30
56538;DHT22;42435;53.292;6.000;2023-09-30T12:11:53;23.70;49.70
56538;DHT22;42435;53.292;6.000;2023-09-30T12:14:22;23.80;49.40
56538;DHT22;42435;53.292;6.000;2023-09-30T12:16:48;23.80;50.20
56538;DHT22;42435;53.292;6.000;2023-09-30T12:19:14;23.90;49.90
56538;DHT22;42435;53.292;6.000;2023-09-30T12:21:41;23.90;49.90
56538;DHT22;42435;53.292;6.000;2023-09-30T12:24:08;24.00;49.40
56538;DHT22;42435;53.292;6.000;2023-09-30T12:26:35;23.90;49.30
56538;DHT22;42435;53.292;6.000;2023-09-30T12:29:02;23.90;49.50
56538;DHT22;42435;53.292;6.000;2023-09-30T12:31:28;23.80;49.40
56538;DHT22;42435;53.292;6.000;2023-09-30T12:33:54;23.80;49.50
56538;DHT22;42435;53.292;6.000;2023-09-30T12:36:21;23.70;49.80
56538;DHT22;42435;53.292;6.000;2023-09-30T12:38:47;23.60;49.80
56538;DHT22;42435;53.292;6.000;2023-09-30T12:41:13;23.50;50.00
56538;DHT22;42435;53.292;6.000;2023-09-30T12:43:42;23.40;50.60
56538;DHT22;42435;53.292;6.000;2023-09-30T12:46:09;23.40;51.00
56538;DHT22;42435;53.292;6.000;2023-09-30T12:48:34;23.40;51.30
56538;DHT22;42435;53.292;6.000;2023-09-30T12:51:00;23.30;52.00
56538;DHT22;42435;53.292;6.000;2023-09-30T12:53:25;23.40;52.30
56538;DHT22;42435;53.292;6.000;2023-09-30T12:55:51;23.50;52.10
56538;DHT22;42435;53.292;6.000;2023-09-30T12:58:17;23.60;51.90
56538;DHT22;42435;53.292;6.000;2023-09-30T13:00:43;23.70;51.70
56538;DHT22;42435;53.292;6.000;2023-09-30T13:03:09;23.80;51.50
56538;DHT22;42435;53.292;6.000;2023-09-30T13:05:34;23.80;51.00
56538;DHT22;42435;53.292;6.000;2023-09-30T13:08:00;23.90;50.60
56538;DHT22;42435;53.292;6.000;2023-09-30T13:10:26;23.80;50.90
56538;DHT22;42435;53.292;6.000;2023-09-30T13:12:52;23.70;51.20
56538;DHT22;42435;53.292;6.000;2023-09-30T13:15:19;23.70;51.40
56538;DHT22;42435;53.292;6.000;2023-09-30T13:17:45;23.70;51.40
56538;DHT22;42435;53.292;6.000;2023-09-30T13:20:11;23.60;51.60
56538;DHT22;42435;53.292;6.000;2023-09-30T13:22:40;23.60;51.70
56538;DHT22;42435;53.292;6.000;2023-09-30T13:25:06;23.50;51.60
56538;DHT22;42435;53.292;6.000;2023-09-30T13:27:33;23.50;51.80
56538;DHT22;42435;53.292;6.000;2023-09-30T13:29:59;23.40;51.60
56538;DHT22;42435;53.292;6.000;2023-09-30T13:32:25;23.30;51.50
56538;DHT22;42435;53.292;6.000;2023-09-30T13:34:51;23.30;51.80
56538;DHT22;42435;53.292;6.000;2023-09-30T13:37:17;23.10;52.00
56538;DHT22;42435;53.292;6.000;2023-09-30T13:39:43;23.00;52.20
56538;DHT22;42435;53.292;6.000;2023-09-30T13:42:09;22.90;52.50
56538;DHT22;42435;53.292;6.000;2023-09-30T13:44:35;22.80;52.80
56538;DHT22;42435;53.292;6.000;2023-09-30T13:47:02;22.70;53.20
56538;DHT22;42435;53.292;6.000;2023-09-30T13:49:28;22.60;53.60
56538;DHT22;42435;53.292;6.000;2023-09-30T13:51:53;22.60;53.60
56538;DHT22;42435;53.292;6.000;2023-09-30T13:54:19;22.50;54.00
56538;DHT22;42435;53.292;6.000;2023-09-30T13:56:45;22.50;54.30
56538;DHT22;42435;53.292;6.000;2023-09-30T13:59:10;22.50;54.20
56538;DHT22;42435;53.292;6.000;2023-09-30T14:01:36;22.50;54.70
56538;DHT22;42435;53.292;6.000;2023-09-30T14:04:02;22.50;54.60
56538;DHT22;42435;53.292;6.000;2023-09-30T14:06:27;22.40;54.40
56538;DHT22;42435;53.292;6.000;2023-09-30T14:08:54;22.40;54.70
56538;DHT22;42435;53.292;6.000;2023-09-30T14:11:20;22.30;54.90
56538;DHT22;42435;53.292;6.000;2023-09-30T14:13:46;22.20;55.30
56538;DHT22;42435;53.292;6.000;2023-09-30T14:16:12;22.20;55.70
56538;DHT22;42435;53.292;6.000;2023-09-30T14:18:37;22.20;56.00
56538;DHT22;42435;53.292;6.000;2023-09-30T14:21:05;22.20;55.90
56538;DHT22;42435;53.292;6.000;2023-09-30T14:23:30;22.20;55.60
56538;DHT22;42435;53.292;6.000;2023-09-30T14:25:56;22.10;55.80
56538;DHT22;42435;53.292;6.000;2023-09-30T14:28:23;22.10;55.90
56538;DHT22;42435;53.292;6.000;2023-09-30T14:30:49;22.10;56.10
56538;DHT22;42435;53.292;6.000;2023-09-30T14:33:21;22.10;56.20
56538;DHT22;42435;53.292;6.000;2023-09-30T14:35:47;22.10;56.10
56538;DHT22;42435;53.292;6.000;2023-09-30T14:38:13;22.10;56.20
56538;DHT22;42435;53.292;6.000;2023-09-30T14:40:40;22.20;56.50
56538;DHT22;42435;53.292;6.000;2023-09-30T14:43:07;22.20;56.40
56538;DHT22;42435;53.292;6.000;2023-09-30T14:45:37;22.20;56.40
56538;DHT22;42435;53.292;6.000;2023-09-30T14:48:05;22.10;56.50
56538;DHT22;42435;53.292;6.000;2023-09-30T14:50:30;22.20;56.50
56538;DHT22;42435;53.292;6.000;2023-09-30T14:52:56;22.10;56.30
56538;DHT22;42435;53.292;6.000;2023-09-30T14:55:21;22.10;56.30
56538;DHT22;42435;53.292;6.000;2023-09-30T14:57:47;22.00;56.30
56538;DHT22;42435;53.292;6.000;2023-09-30T15:00:13;22.00;56.20
56538;DHT22;42435;53.292;6.000;2023-09-30T15:02:38;21.90;56.10
56538;DHT22;42435;53.292;6.000;2023-09-30T15:05:06;21.90;56.30
56538;DHT22;42435;53.292;6.000;2023-09-30T15:07:32;21.80;56.50
56538;DHT22;42435;53.292;6.000;2023-09-30T15:09:57;21.80;56.80
56538;DHT22;42435;53.292;6.000;2023-09-30T15:12:23;21.70;56.90
56538;DHT22;42435;53.292;6.000;2023-09-30T15:14:49;21.70;57.10
56538;DHT22;42435;53.292;6.000;2023-09-30T15:17:14;21.60;57.40
56538;DHT22;42435;53.292;6.000;2023-09-30T15:19:40;21.60;57.70
56538;DHT22;42435;53.292;6.000;2023-09-30T15:22:05;21.50;58.00
56538;DHT22;42435;53.292;6.000;2023-09-30T15:24:31;21.50;58.00
56538;DHT22;42435;53.292;6.000;2023-09-30T15:26:56;21.40;58.20
56538;DHT22;42435;53.292;6.000;2023-09-30T15:29:22;21.40;58.40
56538;DHT22;42435;53.292;6.000;2023-09-30T15:31:48;21.40;58.90
56538;DHT22;42435;53.292;6.000;2023-09-30T15:34:13;21.30;59.10
56538;DHT22;42435;53.292;6.000;2023-09-30T15:36:39;21.30;59.20
56538;DHT22;42435;53.292;6.000;2023-09-30T15:39:04;21.20;59.20
56538;DHT22;42435;53.292;6.000;2023-09-30T15:41:31;21.20;59.50
56538;DHT22;42435;53.292;6.000;2023-09-30T15:44:00;21.10;59.70
56538;DHT22;42435;53.292;6.000;2023-09-30T15:46:28;21.10;59.90
56538;DHT22;42435;53.292;6.000;2023-09-30T15:48:54;21.00;60.00
56538;DHT22;42435;53.292;6.000;2023-09-30T15:51:20;20.90;60.20
56538;DHT22;42435;53.292;6.000;2023-09-30T15:53:45;20.90;60.70